createdAt,value
2023-01-02T00:01:16.226Z,11.45
2023-01-02T00:03:44.288Z,11.43
2023-01-02T00:06:12.449Z,11.41
2023-01-02T00:08:40.440Z,11.39
2023-01-02T00:11:08.437Z,11.36
2023-01-02T00:13:36.354Z,11.34
2023-01-02T00:16:04.644Z,11.33
2023-01-02T00:18:32.657Z,11.30
2023-01-02T00:21:07.215Z,11.28
2023-01-02T00:23:35.577Z,11.27
2023-01-02T00:26:03.503Z,11.25
2023-01-02T00:28:32.032Z,11.23
2023-01-02T00:31:11.725Z,11.21
2023-01-02T00:33:39.991Z,11.20
2023-01-02T00:36:12.882Z,11.20
2023-01-02T00:38:41.270Z,11.18
2023-01-02T00:41:09.952Z,11.17
2023-01-02T00:43:38.156Z,11.16
2023-01-02T00:46:11.445Z,11.16
2023-01-02T00:48:40.744Z,11.15
2023-01-02T00:51:08.896Z,11.14
2023-01-02T00:53:37.302Z,11.14
2023-01-02T00:56:06.165Z,11.13
2023-01-02T00:58:34.464Z,11.14
2023-01-02T01:01:03.051Z,11.14
2023-01-02T01:03:31.705Z,11.15
2023-01-02T01:05:59.533Z,11.15
2023-01-02T01:08:27.405Z,11.16
2023-01-02T01:10:55.520Z,11.17
2023-01-02T01:13:23.366Z,11.18
2023-01-02T01:15:51.356Z,11.19
2023-01-02T01:18:19.436Z,11.19
2023-01-02T01:20:47.281Z,11.20
2023-01-02T01:23:15.287Z,11.20
2023-01-02T01:25:43.480Z,11.21
2023-01-02T01:28:11.435Z,11.22
2023-01-02T01:30:39.358Z,11.22
2023-01-02T01:33:07.508Z,11.22
2023-01-02T01:35:35.406Z,11.22
2023-01-02T01:38:03.283Z,11.24
2023-01-02T01:40:38.556Z,11.29
2023-01-02T01:43:14.064Z,11.32
2023-01-02T01:45:44.844Z,11.33
2023-01-02T01:48:16.771Z,11.34
2023-01-02T01:50:45.323Z,11.35
2023-01-02T01:53:22.077Z,11.38
2023-01-02T01:55:58.543Z,11.39
2023-01-02T01:58:36.193Z,11.42
2023-01-02T02:01:04.594Z,11.44
2023-01-02T02:03:35.209Z,11.46
2023-01-02T02:06:04.405Z,11.47
2023-01-02T02:08:55.817Z,11.49
2023-01-02T02:11:23.797Z,11.52
2023-01-02T02:13:52.198Z,11.52
2023-01-02T02:16:36.867Z,11.53
2023-01-02T02:19:33.195Z,11.52
2023-01-02T02:22:20.183Z,11.47
2023-01-02T02:25:12.762Z,11.44
2023-01-02T02:28:22.558Z,11.41
2023-01-02T02:30:50.743Z,11.39
2023-01-02T02:33:43.479Z,11.38
2023-01-02T02:36:27.155Z,11.36
2023-01-02T02:39:06.404Z,11.34
2023-01-02T02:41:42.320Z,11.34
2023-01-02T02:44:13.225Z,11.31
2023-01-02T02:47:04.661Z,11.31
2023-01-02T02:50:02.638Z,11.29
2023-01-02T02:52:44.083Z,11.28
2023-01-02T02:55:17.273Z,11.26
2023-01-02T02:57:46.774Z,11.25
2023-01-02T03:00:18.999Z,11.24
2023-01-02T03:02:47.345Z,11.21
2023-01-02T03:05:24.414Z,11.20
2023-01-02T03:08:16.378Z,11.18
2023-01-02T03:10:52.705Z,11.16
2023-01-02T03:13:27.195Z,11.16
2023-01-02T03:16:17.084Z,11.15
2023-01-02T03:19:09.540Z,11.14
2023-01-02T03:21:58.775Z,11.13
2023-01-02T03:24:28.535Z,11.12
2023-01-02T03:27:04.548Z,11.11
2023-01-02T03:29:49.560Z,11.10
2023-01-02T03:32:23.537Z,11.08
2023-01-02T03:34:52.904Z,11.07
2023-01-02T03:37:25.721Z,11.06
2023-01-02T03:39:57.833Z,11.04
2023-01-02T03:42:30.208Z,11.04
2023-01-02T03:45:00.508Z,11.01
2023-01-02T03:48:06.402Z,11.00
2023-01-02T03:50:42.594Z,10.98
2023-01-02T03:53:10.946Z,10.97
2023-01-02T03:55:43.522Z,10.96
2023-01-02T03:58:21.195Z,10.95
2023-01-02T04:00:56.330Z,10.94
2023-01-02T04:03:37.202Z,10.94
2023-01-02T04:06:15.049Z,10.93
2023-01-02T04:08:56.763Z,10.93
2023-01-02T04:11:26.540Z,10.92
2023-01-02T04:13:59.924Z,10.92
2023-01-02T04:16:31.345Z,10.91
2023-01-02T04:19:05.678Z,10.90
2023-01-02T04:21:38.795Z,10.90
2023-01-02T04:24:21.764Z,10.89
2023-01-02T04:27:14.439Z,10.89
2023-01-02T04:29:42.515Z,10.88
2023-01-02T04:32:35.337Z,10.88
2023-01-02T04:35:08.557Z,10.88
2023-01-02T04:37:39.715Z,10.86
2023-01-02T04:40:29.806Z,10.84
2023-01-02T04:42:57.834Z,10.83
2023-01-02T04:45:25.873Z,10.80
2023-01-02T04:47:53.763Z,10.77
2023-01-02T04:50:21.857Z,10.74
2023-01-02T04:52:50.068Z,10.70
2023-01-02T04:55:17.932Z,10.65
2023-01-02T04:57:45.986Z,10.60
2023-01-02T05:00:14.316Z,10.55
2023-01-02T05:02:42.313Z,10.51
2023-01-02T05:05:11.125Z,10.49
2023-01-02T05:07:39.873Z,10.46
2023-01-02T05:10:08.759Z,10.43
2023-01-02T05:12:39.378Z,10.39
2023-01-02T05:15:09.971Z,10.37
2023-01-02T05:17:40.498Z,10.35
2023-01-02T05:20:12.047Z,10.34
2023-01-02T05:23:02.956Z,10.35
2023-01-02T05:25:35.979Z,10.48
2023-01-02T05:28:04.739Z,10.42
2023-01-02T05:30:32.916Z,10.37
2023-01-02T05:33:01.044Z,10.34
2023-01-02T05:35:33.110Z,10.32
2023-01-02T05:38:02.102Z,10.30
2023-01-02T05:40:30.246Z,10.29
2023-01-02T05:42:59.196Z,10.27
2023-01-02T05:45:27.281Z,10.26
2023-01-02T05:47:55.503Z,10.25
2023-01-02T05:50:23.472Z,10.23
2023-01-02T05:52:51.560Z,10.22
2023-01-02T05:55:19.685Z,10.20
2023-01-02T05:57:47.602Z,10.19
2023-01-02T06:00:16.518Z,10.17
2023-01-02T06:02:48.498Z,10.15
2023-01-02T06:05:17.311Z,10.14
2023-01-02T06:07:45.375Z,10.13
2023-01-02T06:10:13.391Z,10.11
2023-01-02T06:12:41.346Z,10.08
2023-01-02T06:15:09.725Z,10.06
2023-01-02T06:17:37.928Z,10.03
2023-01-02T06:20:06.564Z,10.00
2023-01-02T06:22:34.571Z,9.97
2023-01-02T06:25:02.725Z,9.96
2023-01-02T06:27:32.973Z,9.93
2023-01-02T06:30:01.103Z,9.89
2023-01-02T06:32:29.678Z,9.84
2023-01-02T06:34:57.618Z,9.80
2023-01-02T06:37:25.748Z,9.75
2023-01-02T06:39:53.669Z,9.71
2023-01-02T06:42:21.657Z,9.65
2023-01-02T06:44:49.638Z,9.60
2023-01-02T06:47:17.642Z,9.55
2023-01-02T06:49:45.538Z,9.50
2023-01-02T06:52:13.591Z,9.44
2023-01-02T06:54:41.648Z,9.40
2023-01-02T06:57:09.574Z,9.39
2023-01-02T06:59:37.705Z,9.38
2023-01-02T07:02:06.225Z,9.34
2023-01-02T07:04:34.224Z,9.32
2023-01-02T07:07:02.395Z,9.33
2023-01-02T07:09:31.777Z,9.34
2023-01-02T07:11:59.752Z,9.36
2023-01-02T07:14:29.004Z,9.38
2023-01-02T07:16:56.943Z,9.40
2023-01-02T07:19:25.052Z,9.42
2023-01-02T07:21:53.187Z,9.42
2023-01-02T07:24:21.122Z,9.42
2023-01-02T07:26:49.735Z,9.44
2023-01-02T07:29:17.811Z,9.46
2023-01-02T07:31:45.741Z,9.48
2023-01-02T07:34:13.769Z,9.50
2023-01-02T07:36:41.830Z,9.53
2023-01-02T07:39:09.857Z,9.55
2023-01-02T07:41:38.033Z,9.58
2023-01-02T07:44:16.471Z,9.62
2023-01-02T07:46:44.666Z,9.66
2023-01-02T07:49:12.961Z,9.69
2023-01-02T07:51:41.111Z,9.73
2023-01-02T07:54:09.058Z,9.77
2023-01-02T07:56:37.043Z,9.80
2023-01-02T07:59:05.312Z,9.84
2023-01-02T08:01:33.277Z,9.88
2023-01-02T08:04:01.328Z,9.92
2023-01-02T08:06:29.633Z,9.96
2023-01-02T08:08:58.592Z,10.01
2023-01-02T08:11:28.799Z,10.05
2023-01-02T08:13:57.244Z,10.10
2023-01-02T08:16:25.264Z,10.15
2023-01-02T08:18:55.782Z,10.20
2023-01-02T08:21:26.305Z,10.26
2023-01-02T08:23:54.323Z,10.33
2023-01-02T08:26:23.455Z,10.39
2023-01-02T08:28:51.634Z,10.46
2023-01-02T08:31:21.893Z,10.51
2023-01-02T08:33:49.990Z,10.57
2023-01-02T08:36:20.072Z,10.63
2023-01-02T08:38:48.082Z,10.68
2023-01-02T08:41:30.226Z,10.72
2023-01-02T08:43:58.459Z,10.78
2023-01-02T08:46:26.939Z,10.81
2023-01-02T08:48:55.097Z,10.85
2023-01-02T08:51:23.182Z,10.89
2023-01-02T08:53:51.484Z,10.93
2023-01-02T08:56:31.357Z,10.97
2023-01-02T08:59:08.646Z,11.00
2023-01-02T09:01:36.986Z,11.04
2023-01-02T09:04:11.932Z,11.05
2023-01-02T09:06:42.575Z,11.08
2023-01-02T09:09:13.145Z,11.10
2023-01-02T09:11:51.086Z,11.12
2023-01-02T09:14:21.887Z,11.15
2023-01-02T09:16:51.337Z,11.17
2023-01-02T09:19:19.324Z,11.20
2023-01-02T09:21:47.829Z,11.23
2023-01-02T09:24:15.871Z,11.27
2023-01-02T09:26:44.001Z,11.31
2023-01-02T09:29:13.536Z,11.36
2023-01-02T09:31:41.950Z,11.42
2023-01-02T09:34:09.931Z,11.47
2023-01-02T09:36:38.475Z,11.53
2023-01-02T09:39:06.521Z,11.59
2023-01-02T09:41:44.504Z,11.66
2023-01-02T09:44:26.950Z,11.74
2023-01-02T09:47:08.256Z,11.81
2023-01-02T09:49:53.206Z,11.88
2023-01-02T09:52:43.223Z,11.95
2023-01-02T09:55:16.739Z,12.01
2023-01-02T09:58:20.262Z,12.05
2023-01-02T10:00:50.814Z,12.10
2023-01-02T10:03:45.857Z,12.14
2023-01-02T10:06:32.416Z,12.18
2023-01-02T10:09:06.003Z,12.22
2023-01-02T10:11:34.120Z,12.25
2023-01-02T10:14:19.903Z,12.29
2023-01-02T10:16:55.728Z,12.31
2023-01-02T10:19:38.212Z,12.34
2023-01-02T10:22:09.749Z,12.37
2023-01-02T10:24:46.424Z,12.40
2023-01-02T10:27:19.582Z,12.42
2023-01-02T10:30:15.861Z,12.44
2023-01-02T10:32:49.266Z,12.44
2023-01-02T10:35:39.353Z,12.44
2023-01-02T10:38:13.189Z,12.44
2023-01-02T10:40:44.867Z,12.44
2023-01-02T10:43:14.394Z,12.44
2023-01-02T10:45:42.800Z,12.44
2023-01-02T10:48:11.850Z,12.43
2023-01-02T10:50:48.629Z,12.43
2023-01-02T10:53:39.509Z,12.43
2023-01-02T10:56:18.481Z,12.41
2023-01-02T10:58:49.048Z,12.40
2023-01-02T11:01:20.505Z,12.39
2023-01-02T11:04:10.909Z,12.38
2023-01-02T11:06:55.832Z,12.37
2023-01-02T11:09:33.500Z,12.37
2023-01-02T11:12:07.857Z,12.36
2023-01-02T11:14:37.685Z,12.36
2023-01-02T11:17:14.293Z,12.35
2023-01-02T11:19:49.132Z,12.35
2023-01-02T11:22:20.494Z,12.36
2023-01-02T11:25:00.386Z,12.36
2023-01-02T11:27:33.814Z,12.36
2023-01-02T11:30:02.823Z,12.36
2023-01-02T11:32:38.893Z,12.36
2023-01-02T11:35:34.366Z,12.36
2023-01-02T11:38:02.661Z,12.37
2023-01-02T11:40:32.533Z,12.37
2023-01-02T11:43:25.762Z,12.38
2023-01-02T11:45:54.898Z,12.39
2023-01-02T11:48:24.409Z,12.41
2023-01-02T11:50:53.147Z,12.42
2023-01-02T11:53:29.339Z,12.45
2023-01-02T11:56:04.701Z,12.48
2023-01-02T11:58:48.053Z,12.51
2023-01-02T12:01:22.324Z,12.55
2023-01-02T12:03:50.676Z,12.58
2023-01-02T12:06:20.200Z,12.62
2023-01-02T12:09:02.853Z,12.68
2023-01-02T12:11:30.893Z,12.74
2023-01-02T12:14:28.145Z,12.84
2023-01-02T12:17:04.909Z,12.96
2023-01-02T12:19:49.437Z,13.07
2023-01-02T12:22:45.567Z,13.20
2023-01-02T12:25:37.886Z,13.32
2023-01-02T12:28:47.025Z,13.42
2023-01-02T12:31:15.021Z,13.53
2023-01-02T12:33:54.237Z,13.60
2023-01-02T12:36:36.384Z,13.68
2023-01-02T12:39:40.193Z,13.75
2023-01-02T12:42:33.835Z,13.83
2023-01-02T12:45:05.893Z,13.90
2023-01-02T12:47:57.318Z,13.96
2023-01-02T12:50:40.613Z,14.03
2023-01-02T12:53:33.813Z,14.09
2023-01-02T12:56:14.060Z,14.15
2023-01-02T12:59:11.428Z,14.18
2023-01-02T13:01:55.797Z,14.24
2023-01-02T13:04:48.704Z,14.29
2023-01-02T13:07:40.645Z,14.37
2023-01-02T13:10:16.845Z,14.45
2023-01-02T13:12:47.687Z,14.47
2023-01-02T13:15:23.842Z,14.48
2023-01-02T13:18:28.766Z,14.48
2023-01-02T13:21:13.025Z,14.46
2023-01-02T13:23:45.185Z,14.44
2023-01-02T13:26:16.824Z,14.41
2023-01-02T13:29:22.140Z,14.38
2023-01-02T13:31:57.478Z,14.34
2023-01-02T13:34:32.502Z,14.31
2023-01-02T13:37:16.025Z,14.27
2023-01-02T13:39:44.120Z,14.24
2023-01-02T13:42:42.326Z,14.21
2023-01-02T13:45:14.914Z,14.19
2023-01-02T13:47:49.858Z,14.19
2023-01-02T13:50:33.960Z,14.19
2023-01-02T13:53:09.491Z,14.19
2023-01-02T13:55:40.683Z,14.18
2023-01-02T13:58:18.417Z,14.18
2023-01-02T14:00:54.689Z,14.18
2023-01-02T14:03:23.804Z,14.15
2023-01-02T14:06:01.368Z,14.14
2023-01-02T14:08:35.690Z,14.13
2023-01-02T14:11:15.958Z,14.11
2023-01-02T14:13:49.456Z,14.10
2023-01-02T14:16:23.491Z,14.09
2023-01-02T14:19:13.419Z,14.09
2023-01-02T14:21:59.576Z,14.07
2023-01-02T14:24:29.560Z,14.06
2023-01-02T14:27:02.266Z,14.04
2023-01-02T14:29:32.264Z,14.03
2023-01-02T14:32:05.790Z,14.01
2023-01-02T14:34:34.878Z,13.99
2023-01-02T14:37:03.254Z,13.97
2023-01-02T14:39:37.168Z,13.94
2023-01-02T14:42:50.877Z,13.91
2023-01-02T14:45:24.030Z,13.88
2023-01-02T14:47:57.944Z,13.86
2023-01-02T14:50:31.102Z,13.84
2023-01-02T14:53:02.529Z,13.82
2023-01-02T14:55:41.343Z,13.80
2023-01-02T14:58:23.947Z,13.77
2023-01-02T15:00:52.939Z,13.74
2023-01-02T15:03:40.872Z,13.73
2023-01-02T15:06:19.240Z,13.70
2023-01-02T15:08:51.796Z,13.67
2023-01-02T15:11:42.053Z,13.63
2023-01-02T15:14:17.814Z,13.59
2023-01-02T15:16:57.194Z,13.54
2023-01-02T15:19:29.775Z,13.50
2023-01-02T15:21:58.927Z,13.46
2023-01-02T15:24:34.278Z,13.43
2023-01-02T15:27:22.864Z,13.40
2023-01-02T15:29:53.898Z,13.37
2023-01-02T15:32:32.126Z,13.33
2023-01-02T15:35:10.223Z,13.30
2023-01-02T15:37:45.248Z,13.27
2023-01-02T15:40:36.210Z,13.23
2023-01-02T15:43:25.957Z,13.20
2023-01-02T15:45:54.445Z,13.17
2023-01-02T15:48:27.602Z,13.16
2023-01-02T15:50:58.225Z,13.15
2023-01-02T15:53:30.766Z,13.14
2023-01-02T15:55:59.228Z,13.13
2023-01-02T15:58:29.491Z,13.12
2023-01-02T16:01:18.598Z,13.10
2023-01-02T16:04:04.578Z,13.08
2023-01-02T16:06:41.481Z,13.05
2023-01-02T16:09:22.690Z,13.01
2023-01-02T16:11:54.844Z,12.98
2023-01-02T16:14:35.347Z,12.95
2023-01-02T16:17:28.442Z,12.92
2023-01-02T16:20:00.335Z,12.89
2023-01-02T16:22:31.418Z,12.84
2023-01-02T16:25:12.005Z,12.81
2023-01-02T16:28:02.680Z,12.78
2023-01-02T16:30:33.903Z,12.75
2023-01-02T16:33:20.578Z,12.71
2023-01-02T16:36:00.932Z,12.66
2023-01-02T16:38:30.767Z,12.63
2023-01-02T16:41:03.478Z,12.59
2023-01-02T16:43:36.772Z,12.56
2023-01-02T16:46:14.761Z,12.52
2023-01-02T16:48:44.201Z,12.49
2023-01-02T16:51:14.758Z,12.46
2023-01-02T16:53:45.582Z,12.43
2023-01-02T16:56:21.028Z,12.40
2023-01-02T16:58:51.022Z,12.38
2023-01-02T17:01:20.881Z,12.35
2023-01-02T17:03:48.987Z,12.34
2023-01-02T17:06:21.308Z,12.33
2023-01-02T17:08:49.360Z,12.31
2023-01-02T17:11:23.573Z,12.30
2023-01-02T17:13:52.435Z,12.29
2023-01-02T17:16:21.255Z,12.28
2023-01-02T17:18:50.174Z,12.26
2023-01-02T17:21:18.839Z,12.24
2023-01-02T17:23:47.700Z,12.22
2023-01-02T17:26:16.118Z,12.20
2023-01-02T17:28:44.731Z,12.19
2023-01-02T17:31:18.909Z,12.18
2023-01-02T17:33:50.911Z,12.18
2023-01-02T17:36:18.903Z,12.17
2023-01-02T17:38:48.541Z,12.15
2023-01-02T17:41:16.696Z,12.13
2023-01-02T17:44:01.789Z,12.11
2023-01-02T17:49:21.262Z,12.07
2023-01-02T17:51:49.502Z,12.04
2023-01-02T17:54:17.658Z,12.02
2023-01-02T17:56:45.625Z,12.00
2023-01-02T17:59:14.210Z,11.98
2023-01-02T18:01:42.368Z,11.96
2023-01-02T18:04:10.456Z,11.94
2023-01-02T18:06:38.847Z,11.92
2023-01-02T18:09:07.384Z,11.91
2023-01-02T18:11:35.711Z,11.89
2023-01-02T18:14:14.159Z,11.87
2023-01-02T18:16:43.119Z,11.86
2023-01-02T18:19:20.374Z,11.84
2023-01-02T18:21:48.767Z,11.82
2023-01-02T18:24:35.018Z,11.81
2023-01-02T18:27:24.894Z,11.78
2023-01-02T18:30:16.603Z,11.76
2023-01-02T18:32:45.487Z,11.74
2023-01-02T18:35:54.761Z,11.73
2023-01-02T18:38:20.109Z,11.74
2023-01-02T18:40:48.176Z,11.74
2023-01-02T18:43:38.370Z,11.74
2023-01-02T18:46:23.795Z,11.74
2023-01-02T18:48:55.875Z,11.74
2023-01-02T18:51:24.754Z,11.75
2023-01-02T18:53:57.285Z,11.75
2023-01-02T18:56:29.544Z,11.75
2023-01-02T18:59:16.109Z,11.76
2023-01-02T19:01:50.749Z,11.78
2023-01-02T19:04:28.355Z,11.79
2023-01-02T19:07:01.863Z,11.80
2023-01-02T19:09:33.813Z,11.81
2023-01-02T19:12:33.025Z,11.82
2023-01-02T19:15:22.704Z,11.83
2023-01-02T19:17:50.689Z,11.81
2023-01-02T19:20:18.813Z,11.81
2023-01-02T19:22:46.888Z,11.81
2023-01-02T19:25:22.186Z,11.81
2023-01-02T19:27:52.747Z,11.81
2023-01-02T19:30:35.935Z,11.81
2023-01-02T19:33:43.800Z,11.80
2023-01-02T19:36:21.755Z,11.80
2023-01-02T19:38:52.516Z,11.80
2023-01-02T19:41:40.515Z,11.80
2023-01-02T19:44:08.850Z,11.80
2023-01-02T19:46:36.979Z,11.81
2023-01-02T19:49:05.103Z,11.83
2023-01-02T19:51:33.233Z,11.85
2023-01-02T19:54:04.282Z,11.87
2023-01-02T19:56:32.568Z,11.90
2023-01-02T19:59:00.999Z,11.93
2023-01-02T20:01:29.165Z,11.95
2023-01-02T20:03:57.795Z,11.96
2023-01-02T20:06:26.238Z,11.95
2023-01-02T20:08:54.568Z,11.95
2023-01-02T20:11:41.035Z,11.94
2023-01-02T20:14:09.049Z,11.94
2023-01-02T20:16:37.065Z,11.93
2023-01-02T20:19:05.318Z,11.92
2023-01-02T20:21:33.274Z,11.92
2023-01-02T20:24:01.474Z,11.91
2023-01-02T20:26:30.159Z,11.90
2023-01-02T20:28:58.145Z,11.89
2023-01-02T20:31:26.180Z,11.88
2023-01-02T20:33:54.360Z,11.86
2023-01-02T20:36:22.381Z,11.85
2023-01-02T20:38:50.329Z,11.83
2023-01-02T20:41:18.508Z,11.81
2023-01-02T20:43:46.751Z,11.79
2023-01-02T20:46:14.798Z,11.78
2023-01-02T20:48:43.041Z,11.75
2023-01-02T20:51:14.703Z,11.71
2023-01-02T20:53:42.610Z,11.69
2023-01-02T20:56:11.036Z,11.65
2023-01-02T20:58:39.093Z,11.63
2023-01-02T21:01:06.985Z,11.61
2023-01-02T21:03:35.368Z,11.58
2023-01-02T21:06:03.531Z,11.54
2023-01-02T21:08:32.129Z,11.51
2023-01-02T21:11:00.175Z,11.49
2023-01-02T21:13:28.225Z,11.46
2023-01-02T21:15:58.035Z,11.44
2023-01-02T21:18:27.852Z,11.42
2023-01-02T21:20:58.266Z,11.40
2023-01-02T21:23:28.528Z,11.37
2023-01-02T21:25:57.175Z,11.35
2023-01-02T21:28:26.045Z,11.33
2023-01-02T21:30:55.054Z,11.31
2023-01-02T21:33:25.126Z,11.29
2023-01-02T21:35:55.332Z,11.28
2023-01-02T21:38:24.166Z,11.27
2023-01-02T21:40:53.238Z,11.26
2023-01-02T21:43:22.027Z,11.24
2023-01-02T21:45:50.508Z,11.23
2023-01-02T21:48:18.394Z,11.22
2023-01-02T21:50:46.407Z,11.21
2023-01-02T21:53:16.876Z,11.21
2023-01-02T21:55:44.881Z,11.19
2023-01-02T21:58:14.374Z,11.18
2023-01-02T22:00:43.618Z,11.17
2023-01-02T22:03:12.065Z,11.17
2023-01-02T22:05:40.509Z,11.15
2023-01-02T22:08:08.558Z,11.14
2023-01-02T22:10:38.493Z,11.13
2023-01-02T22:13:19.561Z,11.13
2023-01-02T22:15:47.534Z,11.12
2023-01-02T22:18:15.648Z,11.11
2023-01-02T22:20:43.692Z,11.09
2023-01-02T22:23:11.587Z,11.08
2023-01-02T22:25:39.538Z,11.07
2023-01-02T22:28:07.508Z,11.04
2023-01-02T22:30:35.585Z,11.02
2023-01-02T22:33:04.541Z,11.00
2023-01-02T22:35:33.911Z,10.98
2023-01-02T22:38:01.806Z,10.95
2023-01-02T22:40:29.701Z,10.93
2023-01-02T22:43:00.893Z,10.90
2023-01-02T22:45:34.138Z,10.88
2023-01-02T22:48:06.200Z,10.86
2023-01-02T22:50:42.202Z,10.85
2023-01-02T22:53:20.905Z,10.83
2023-01-02T22:55:49.719Z,10.83
2023-01-02T22:58:18.512Z,10.82
2023-01-02T23:00:47.757Z,10.82
2023-01-02T23:03:17.134Z,10.81
2023-01-02T23:05:45.114Z,10.79
2023-01-02T23:08:14.470Z,10.78
2023-01-02T23:10:42.527Z,10.77
2023-01-02T23:13:10.517Z,10.76
2023-01-02T23:15:59.768Z,10.75
2023-01-02T23:18:51.680Z,10.73
2023-01-02T23:21:23.512Z,10.72
2023-01-02T23:23:52.273Z,10.71
2023-01-02T23:26:21.162Z,10.71
2023-01-02T23:29:06.455Z,10.70
2023-01-02T23:31:46.501Z,10.71
2023-01-02T23:34:17.167Z,10.71
2023-01-02T23:36:45.847Z,10.72
2023-01-02T23:39:16.692Z,10.71
2023-01-02T23:41:44.812Z,10.71
2023-01-02T23:44:14.034Z,10.71
2023-01-02T23:46:42.632Z,10.71
2023-01-02T23:49:11.444Z,10.71
2023-01-02T23:51:40.813Z,10.71
2023-01-02T23:54:11.211Z,10.70
2023-01-02T23:56:40.971Z,10.70
2023-01-02T23:59:11.857Z,10.69
